createdAt,value
2023-04-05T00:00:52.475Z,-2.68
2023-04-05T00:02:32.871Z,-2.72
2023-04-05T00:04:13.252Z,-2.74
2023-04-05T00:05:53.573Z,-2.75
2023-04-05T00:07:33.939Z,-2.79
2023-04-05T00:09:14.419Z,-2.85
2023-04-05T00:10:54.826Z,-2.89
2023-04-05T00:12:35.242Z,-2.86
2023-04-05T00:14:15.646Z,-2.89
2023-04-05T00:15:56.023Z,-2.89
2023-04-05T00:17:36.375Z,-2.92
2023-04-05T00:19:16.717Z,-2.99
2023-04-05T00:20:57.107Z,-3.02
2023-04-05T00:22:37.436Z,-3.07
2023-04-05T00:24:17.822Z,-3.1
2023-04-05T00:25:58.184Z,-3.12
2023-04-05T00:27:38.577Z,-3.1
2023-04-05T00:29:19.023Z,-3.07
2023-04-05T00:30:59.400Z,-3.03
2023-04-05T00:32:39.856Z,-3.1
2023-04-05T00:34:20.285Z,-3.12
2023-04-05T00:36:00.727Z,-3.1
2023-04-05T00:37:41.045Z,-3.12
2023-04-05T00:39:21.386Z,-3.16
2023-04-05T00:41:01.712Z,-3.16
2023-04-05T00:42:42.144Z,-3.16
2023-04-05T00:44:22.472Z,-3.17
2023-04-05T00:46:02.903Z,-3.2
2023-04-05T00:47:43.314Z,-3.19
2023-04-05T00:49:23.576Z,-3.19
2023-04-05T00:51:03.992Z,-3.21
2023-04-05T00:52:44.362Z,-3.23
2023-04-05T00:54:24.763Z,-3.26
2023-04-05T00:56:05.114Z,-3.29
2023-04-05T00:57:45.459Z,-3.29
2023-04-05T00:59:25.953Z,-3.33
2023-04-05T01:01:06.533Z,-3.34
2023-04-05T01:02:46.779Z,-3.37
2023-04-05T01:04:27.194Z,-3.37
2023-04-05T01:06:09.132Z,-3.33
2023-04-05T01:07:47.951Z,-3.36
2023-04-05T01:09:28.359Z,-3.37
2023-04-05T01:11:08.787Z,-3.36
2023-04-05T01:12:49.233Z,-3.39
2023-04-05T01:14:29.534Z,-3.4
2023-04-05T01:16:09.985Z,-3.44
2023-04-05T01:17:50.394Z,-3.44
2023-04-05T01:19:30.680Z,-3.44
2023-04-05T01:21:10.990Z,-3.46
2023-04-05T01:22:51.377Z,-3.43
2023-04-05T01:24:31.707Z,-3.4
2023-04-05T01:26:12.124Z,-3.4
2023-04-05T01:27:52.581Z,-3.4
2023-04-05T01:29:32.930Z,-3.39
2023-04-05T01:31:13.361Z,-3.4
2023-04-05T01:32:53.725Z,-3.41
2023-04-05T01:34:34.116Z,-3.47
2023-04-05T01:36:14.520Z,-3.44
2023-04-05T01:37:54.827Z,-3.5
2023-04-05T01:39:35.297Z,-3.51
2023-04-05T01:41:15.735Z,-3.55
2023-04-05T01:42:56.094Z,-3.61
2023-04-05T01:44:36.467Z,-3.65
2023-04-05T01:46:16.936Z,-3.65
2023-04-05T01:47:57.396Z,-3.68
2023-04-05T01:49:37.643Z,-3.75
2023-04-05T01:51:17.989Z,-3.75
2023-04-05T01:52:58.308Z,-3.74
2023-04-05T01:54:38.718Z,-3.75
2023-04-05T01:56:19.196Z,-3.74
2023-04-05T01:57:59.641Z,-3.74
2023-04-05T01:59:39.907Z,-3.76
2023-04-05T02:01:20.286Z,-3.75
2023-04-05T02:03:00.743Z,-3.76
2023-04-05T02:04:41.035Z,-3.76
2023-04-05T02:06:21.443Z,-3.78
2023-04-05T02:08:01.836Z,-3.83
2023-04-05T02:09:42.251Z,-3.89
2023-04-05T02:11:22.760Z,-3.91
2023-04-05T02:13:03.078Z,-3.91
2023-04-05T02:14:43.535Z,-3.92
2023-04-05T02:16:23.982Z,-3.91
2023-04-05T02:18:04.422Z,-3.93
2023-04-05T02:19:44.693Z,-3.92
2023-04-05T02:21:25.104Z,-3.98
2023-04-05T02:23:05.471Z,-3.99
2023-04-05T02:24:45.859Z,-4.02
2023-04-05T02:26:26.231Z,-4.05
2023-04-05T02:28:06.600Z,-4.02
2023-04-05T02:29:47.044Z,-4.07
2023-04-05T02:31:27.522Z,-4.12
2023-04-05T02:33:07.886Z,-4.14
2023-04-05T02:34:48.243Z,-4.14
2023-04-05T02:36:28.535Z,-4.1
2023-04-05T02:38:08.890Z,-4.14
2023-04-05T02:39:49.303Z,-4.16
2023-04-05T02:41:29.713Z,-4.17
2023-04-05T02:43:10.076Z,-4.23
2023-04-05T02:44:50.445Z,-4.19
2023-04-05T02:46:30.772Z,-4.17
2023-04-05T02:48:11.193Z,-4.2
2023-04-05T02:49:51.602Z,-4.19
2023-04-05T02:51:32.005Z,-4.26
2023-04-05T02:53:12.338Z,-4.23
2023-04-05T02:54:52.806Z,-4.26
2023-04-05T02:56:33.136Z,-4.29
2023-04-05T02:58:13.518Z,-4.33
2023-04-05T02:59:53.943Z,-4.31
2023-04-05T03:01:34.331Z,-4.31
2023-04-05T03:03:14.781Z,-4.31
2023-04-05T03:04:55.073Z,-4.31
2023-04-05T03:06:35.424Z,-4.34
2023-04-05T03:08:15.841Z,-4.35
2023-04-05T03:09:56.154Z,-4.35
2023-04-05T03:11:36.600Z,-4.4
2023-04-05T03:13:17.053Z,-4.41
2023-04-05T03:14:57.395Z,-4.43
2023-04-05T03:16:39.791Z,-4.44
2023-04-05T03:18:18.137Z,-4.47
2023-04-05T03:19:58.559Z,-4.43
2023-04-05T03:21:38.870Z,-4.4
2023-04-05T03:23:19.204Z,-4.43
2023-04-05T03:24:59.495Z,-4.47
2023-04-05T03:26:39.900Z,-4.47
2023-04-05T03:28:20.271Z,-4.49
2023-04-05T03:30:00.632Z,-4.51
2023-04-05T03:31:41.143Z,-4.51
2023-04-05T03:33:21.500Z,-4.39
2023-04-05T03:35:01.901Z,-4.33
2023-04-05T03:36:42.250Z,-4.27
2023-04-05T03:38:22.527Z,-4.27
2023-04-05T03:40:02.897Z,-4.24
2023-04-05T03:41:43.264Z,-4.27
2023-04-05T03:43:23.650Z,-4.33
2023-04-05T03:45:04.110Z,-4.33
2023-04-05T03:46:44.460Z,-4.3
2023-04-05T03:48:24.813Z,-4.29
2023-04-05T03:50:05.209Z,-4.31
2023-04-05T03:51:45.632Z,-4.33
2023-04-05T03:53:26.134Z,-4.35
2023-04-05T03:55:06.469Z,-4.44
2023-04-05T03:56:46.805Z,-4.47
2023-04-05T03:58:27.191Z,-4.5
2023-04-05T04:00:07.562Z,-4.51
2023-04-05T04:01:48.087Z,-4.51
2023-04-05T04:03:28.447Z,-4.51
2023-04-05T04:05:08.840Z,-4.49
2023-04-05T04:06:49.077Z,-4.51
2023-04-05T04:08:29.451Z,-4.53
2023-04-05T04:10:09.833Z,-4.43
2023-04-05T04:11:50.265Z,-4.49
2023-04-05T04:13:30.707Z,-4.51
2023-04-05T04:15:11.072Z,-4.54
2023-04-05T04:16:51.483Z,-4.6
2023-04-05T04:18:31.906Z,-4.61
2023-04-05T04:20:12.264Z,-4.67
2023-04-05T04:21:52.654Z,-4.64
2023-04-05T04:23:33.077Z,-4.64
2023-04-05T04:25:13.439Z,-4.68
2023-04-05T04:26:53.784Z,-4.67
2023-04-05T04:28:34.129Z,-4.72
2023-04-05T04:30:14.475Z,-4.72
2023-04-05T04:31:55.004Z,-4.77
2023-04-05T04:33:35.371Z,-4.77
2023-04-05T04:35:15.786Z,-4.77
2023-04-05T04:36:56.201Z,-4.74
2023-04-05T04:38:36.639Z,-4.75
2023-04-05T04:40:17.144Z,-4.77
2023-04-05T04:41:57.496Z,-4.82
2023-04-05T04:43:37.862Z,-4.82
2023-04-05T04:45:18.275Z,-4.75
2023-04-05T04:46:58.673Z,-4.7
2023-04-05T04:48:39.113Z,-4.74
2023-04-05T04:50:19.573Z,-4.77
2023-04-05T04:51:59.922Z,-4.81
2023-04-05T04:53:40.292Z,-4.81
2023-04-05T04:55:20.742Z,-4.82
2023-04-05T04:57:01.178Z,-4.81
2023-04-05T04:58:41.735Z,-4.81
2023-04-05T05:00:22.101Z,-4.78
2023-04-05T05:02:02.426Z,-4.79
2023-04-05T05:03:42.867Z,-4.77
2023-04-05T05:05:23.411Z,-4.78
2023-04-05T05:07:03.624Z,-4.82
2023-04-05T05:08:44.061Z,-4.79
2023-04-05T05:10:24.456Z,-4.78
2023-04-05T05:12:04.833Z,-4.78
2023-04-05T05:13:48.568Z,-4.79
2023-04-05T05:15:25.481Z,-4.78
2023-04-05T05:17:05.818Z,-4.77
2023-04-05T05:18:46.107Z,-4.72
2023-04-05T05:20:26.467Z,-4.67
2023-04-05T05:22:06.858Z,-4.54
2023-04-05T05:23:47.356Z,-4.51
2023-04-05T05:25:28.462Z,-4.5
2023-04-05T05:27:08.064Z,-4.41
2023-04-05T05:28:48.356Z,-4.34
2023-04-05T05:30:28.715Z,-4.23
2023-04-05T05:32:09.088Z,-4.2
2023-04-05T05:33:49.443Z,-4.12
2023-04-05T05:35:29.923Z,-4.06
2023-04-05T05:37:10.283Z,-3.98
2023-04-05T05:38:50.697Z,-3.89
2023-04-05T05:40:31.161Z,-3.83
2023-04-05T05:42:11.472Z,-3.76
2023-04-05T05:43:51.837Z,-3.67
2023-04-05T05:45:32.243Z,-3.58
2023-04-05T05:47:12.605Z,-3.5
2023-04-05T05:48:53.114Z,-3.39
2023-04-05T05:50:33.492Z,-3.32
2023-04-05T05:52:13.911Z,-3.26
2023-04-05T05:53:54.295Z,-3.14
2023-04-05T05:55:34.761Z,-3.12
2023-04-05T05:57:15.120Z,-2.97
2023-04-05T05:58:55.611Z,-2.86
2023-04-05T06:00:35.973Z,-2.76
2023-04-05T06:02:16.334Z,-2.74
2023-04-05T06:03:56.774Z,-2.62
2023-04-05T06:05:37.068Z,-2.5
2023-04-05T06:07:17.499Z,-2.37
2023-04-05T06:08:57.920Z,-2.16
2023-04-05T06:10:38.405Z,-2.02
2023-04-05T06:12:18.758Z,-1.88
2023-04-05T06:13:59.146Z,-1.69
2023-04-05T06:15:39.513Z,-1.55
2023-04-05T06:17:19.871Z,-1.41
2023-04-05T06:19:00.299Z,-1.26
2023-04-05T06:20:40.926Z,-1.09
2023-04-05T06:22:21.117Z,-0.89
2023-04-05T06:24:01.523Z,-0.72
2023-04-05T06:25:41.923Z,-0.49
2023-04-05T06:27:22.232Z,-0.32
2023-04-05T06:29:02.700Z,-0.11
2023-04-05T06:30:43.102Z,0.16
2023-04-05T06:32:23.403Z,0.34
2023-04-05T06:34:03.670Z,0.48
2023-04-05T06:35:44.072Z,0.73
2023-04-05T06:37:24.324Z,0.95
2023-04-05T06:39:04.656Z,1.1
2023-04-05T06:40:44.967Z,1.19
2023-04-05T06:42:26.551Z,1.34
2023-04-05T06:44:05.553Z,1.37
2023-04-05T06:45:46.002Z,1.45
2023-04-05T06:47:26.407Z,1.61
2023-04-05T06:49:06.721Z,1.79
2023-04-05T06:50:47.062Z,1.89
2023-04-05T06:52:27.441Z,1.99
2023-04-05T06:54:07.911Z,2.12
2023-04-05T06:55:48.199Z,2.27
2023-04-05T06:57:28.542Z,2.34
2023-04-05T06:59:08.935Z,2.4
2023-04-05T07:00:49.276Z,2.51
2023-04-05T07:02:29.691Z,2.61
2023-04-05T07:04:10.037Z,2.71
2023-04-05T07:05:50.331Z,2.75
2023-04-05T07:07:30.756Z,2.85
2023-04-05T07:09:11.168Z,2.98
2023-04-05T07:10:51.513Z,3.19
2023-04-05T07:12:31.916Z,3.33
2023-04-05T07:14:12.321Z,3.44
2023-04-05T07:15:53.049Z,3.58
2023-04-05T07:17:33.144Z,3.7
2023-04-05T07:19:13.400Z,3.61
2023-04-05T07:20:53.873Z,3.71
2023-04-05T07:22:34.233Z,3.82
2023-04-05T07:24:14.569Z,3.96
2023-04-05T07:25:55.014Z,4.09
2023-04-05T07:27:35.377Z,4.23
2023-04-05T07:29:15.670Z,4.36
2023-04-05T07:30:56.064Z,4.5
2023-04-05T07:32:36.433Z,4.61
2023-04-05T07:34:16.703Z,4.75
2023-04-05T07:35:57.223Z,4.87
2023-04-05T07:37:37.298Z,5.04
2023-04-05T07:39:17.623Z,5.1
2023-04-05T07:40:57.906Z,5.29
2023-04-05T07:42:38.201Z,5.53
2023-04-05T07:44:18.525Z,5.74
2023-04-05T07:45:59.003Z,6.02
2023-04-05T07:47:39.328Z,6.29
2023-04-05T07:49:19.723Z,6.55
2023-04-05T07:51:00.157Z,6.7
2023-04-05T07:52:40.513Z,6.8
2023-04-05T07:54:20.904Z,6.97
2023-04-05T07:56:01.253Z,7.07
2023-04-05T07:57:41.634Z,7.14
2023-04-05T07:59:22.073Z,7.17
2023-04-05T08:01:02.422Z,7.1
2023-04-05T08:02:42.855Z,7.28
2023-04-05T08:04:23.133Z,7.52
2023-04-05T08:06:03.499Z,7.61
2023-04-05T08:07:43.965Z,7.61
2023-04-05T08:09:24.370Z,7.67
2023-04-05T08:11:04.751Z,8
2023-04-05T08:12:45.199Z,8.27
2023-04-05T08:14:25.575Z,8.51
2023-04-05T08:16:06.069Z,8.62
2023-04-05T08:17:46.393Z,8.72
2023-04-05T08:19:26.797Z,8.96
2023-04-05T08:21:07.213Z,9.13
2023-04-05T08:22:47.521Z,9.3
2023-04-05T08:24:27.876Z,9.45
2023-04-05T08:26:08.131Z,9.63
2023-04-05T08:27:48.439Z,9.84
2023-04-05T08:29:28.720Z,10.12
2023-04-05T08:31:09.697Z,10.14
2023-04-05T08:32:49.389Z,10.39
2023-04-05T08:34:29.634Z,10.43
2023-04-05T08:36:09.936Z,10.64
2023-04-05T08:37:50.216Z,10.86
2023-04-05T08:39:30.575Z,10.9
2023-04-05T08:41:10.839Z,11.09
2023-04-05T08:42:51.166Z,11.3
2023-04-05T08:44:31.478Z,11.3
2023-04-05T08:46:11.815Z,11.57
2023-04-05T08:47:52.260Z,11.46
2023-04-05T08:49:32.466Z,11.5
2023-04-05T08:51:12.865Z,11.78
2023-04-05T08:52:53.236Z,11.8
2023-04-05T08:54:33.627Z,11.78
2023-04-05T08:56:13.975Z,12.11
2023-04-05T08:57:54.389Z,12.14
2023-04-05T08:59:34.811Z,12.22
2023-04-05T09:01:15.207Z,12.28
2023-04-05T09:02:55.669Z,12.18
2023-04-05T09:04:35.961Z,12.19
2023-04-05T09:06:16.325Z,12.11
2023-04-05T09:07:56.765Z,12.25
2023-04-05T09:09:37.172Z,12.38
2023-04-05T09:11:17.652Z,12.19
2023-04-05T09:12:58.099Z,12.32
2023-04-05T09:14:38.445Z,12.62
2023-04-05T09:16:18.924Z,12.9
2023-04-05T09:17:59.275Z,12.93
2023-04-05T09:19:39.575Z,12.97
2023-04-05T09:21:19.961Z,13.07
2023-04-05T09:23:00.304Z,13.25
2023-04-05T09:24:40.730Z,13.39
2023-04-05T09:26:21.032Z,13.37
2023-04-05T09:28:01.348Z,13.18
2023-04-05T09:29:41.654Z,13.13
2023-04-05T09:31:21.973Z,13.11
2023-04-05T09:33:02.295Z,13.03
2023-04-05T09:34:42.570Z,12.53
2023-04-05T09:36:22.961Z,12.45
2023-04-05T09:38:03.286Z,12.24
2023-04-05T09:39:43.626Z,12.69
2023-04-05T09:41:24.055Z,12.83
2023-04-05T09:43:04.465Z,13.24
2023-04-05T09:44:44.895Z,13.49
2023-04-05T09:46:25.247Z,13.82
2023-04-05T09:48:05.689Z,13.69
2023-04-05T09:49:46.080Z,13.96
2023-04-05T09:51:26.466Z,13.9
2023-04-05T09:53:06.967Z,14.2
2023-04-05T09:54:47.296Z,14.32
2023-04-05T09:56:27.678Z,14.41
2023-04-05T09:58:08.073Z,14.47
2023-04-05T09:59:48.421Z,14.41
2023-04-05T10:01:28.870Z,14.28
2023-04-05T10:03:09.230Z,13.69
2023-04-05T10:04:49.527Z,13.13
2023-04-05T10:06:29.922Z,12.72
2023-04-05T10:08:10.397Z,12.84
2023-04-05T10:09:50.807Z,13.34
2023-04-05T10:11:31.189Z,12.91
2023-04-05T10:13:11.530Z,12.6
2023-04-05T10:14:51.790Z,12.09
2023-04-05T10:16:32.212Z,11.7
2023-04-05T10:18:12.472Z,12.35
2023-04-05T10:19:52.774Z,12.42
2023-04-05T10:21:33.073Z,12.56
2023-04-05T10:23:13.366Z,12.09
2023-04-05T10:24:53.862Z,11.87
2023-04-05T10:26:34.446Z,11.66
2023-04-05T10:28:14.680Z,11.57
2023-04-05T10:29:55.089Z,11.81
2023-04-05T10:31:38.043Z,12.29
2023-04-05T10:33:15.833Z,12.27
2023-04-05T10:34:56.184Z,12.63
2023-04-05T10:36:36.517Z,12.98
2023-04-05T10:38:16.857Z,13.44
2023-04-05T10:39:57.258Z,13.7
2023-04-05T10:41:37.634Z,14.06
2023-04-05T10:43:18.081Z,14.23
2023-04-05T10:44:58.409Z,13.89
2023-04-05T10:46:38.877Z,14.2
2023-04-05T10:48:19.280Z,14.49
2023-04-05T10:49:59.703Z,14.58
2023-04-05T10:51:40.015Z,14.67
2023-04-05T10:53:20.360Z,14.38
2023-04-05T10:55:00.842Z,14.24
2023-04-05T10:56:41.217Z,14.57
2023-04-05T10:58:21.695Z,14.49
2023-04-05T11:00:02.052Z,14.67
2023-04-05T11:01:42.537Z,14.32
2023-04-05T11:03:23.003Z,14.38
2023-04-05T11:05:03.263Z,14.59
2023-04-05T11:06:43.625Z,14.72
2023-04-05T11:08:23.963Z,14.79
2023-04-05T11:10:04.331Z,14.42
2023-04-05T11:11:44.628Z,14.55
2023-04-05T11:13:25.022Z,14.86
2023-04-05T11:15:05.476Z,15.03
2023-04-05T11:16:45.975Z,15.03
2023-04-05T11:18:26.330Z,15.31
2023-04-05T11:20:06.752Z,15.64
2023-04-05T11:21:47.070Z,15.58
2023-04-05T11:23:27.439Z,15.13
2023-04-05T11:25:07.847Z,14.85
2023-04-05T11:26:48.118Z,15.2
2023-04-05T11:28:28.611Z,15.47
2023-04-05T11:30:09.012Z,15.65
2023-04-05T11:31:49.532Z,15.72
2023-04-05T11:33:29.912Z,15.95
2023-04-05T11:35:10.290Z,15.65
2023-04-05T11:36:50.640Z,15.74
2023-04-05T11:38:30.925Z,15.91
2023-04-05T11:40:11.252Z,16.16
2023-04-05T11:41:51.620Z,16.16
2023-04-05T11:43:31.959Z,16.11
2023-04-05T11:45:12.283Z,15.98
2023-04-05T11:46:52.733Z,15.74
2023-04-05T11:48:33.077Z,16.11
2023-04-05T11:50:13.478Z,16.46
2023-04-05T11:51:53.946Z,16.3
2023-04-05T11:53:34.249Z,16.61
2023-04-05T11:55:14.577Z,16.05
2023-04-05T11:56:55.161Z,15.72
2023-04-05T11:58:35.437Z,15.91
2023-04-05T12:00:15.820Z,16.08
2023-04-05T12:01:56.216Z,15.61
2023-04-05T12:03:36.687Z,15.82
2023-04-05T12:05:17.163Z,15.72
2023-04-05T12:06:57.419Z,15.88
2023-04-05T12:08:37.789Z,15.78
2023-04-05T12:10:18.193Z,15.77
2023-04-05T12:11:58.568Z,15.71
2023-04-05T12:13:38.883Z,16.02
2023-04-05T12:15:19.406Z,16.15
2023-04-05T12:16:59.661Z,16.15
2023-04-05T12:18:40.066Z,15.99
2023-04-05T12:20:20.455Z,16.12
2023-04-05T12:22:00.749Z,16.3
2023-04-05T12:23:41.133Z,16.44
2023-04-05T12:25:21.519Z,16.33
2023-04-05T12:27:01.821Z,16.54
2023-04-05T12:28:42.190Z,16.73
2023-04-05T12:30:22.694Z,16.8
2023-04-05T12:32:02.960Z,16.52
2023-04-05T12:33:43.340Z,16.67
2023-04-05T12:35:23.700Z,16.46
2023-04-05T12:37:04.091Z,16.46
2023-04-05T12:38:44.561Z,16.54
2023-04-05T12:40:24.985Z,16.6
2023-04-05T12:42:05.297Z,16.04
2023-04-05T12:43:45.684Z,15.62
2023-04-05T12:45:26.137Z,14.86
2023-04-05T12:47:06.541Z,15.16
2023-04-05T12:48:46.979Z,14.82
2023-04-05T12:50:27.357Z,14.55
2023-04-05T12:52:07.746Z,14.16
2023-04-05T12:53:48.175Z,13.65
2023-04-05T12:55:28.512Z,13.61
2023-04-05T12:57:09.077Z,13.59
2023-04-05T12:58:49.413Z,13.89
2023-04-05T13:00:29.677Z,14.06
2023-04-05T13:02:10.055Z,14.07
2023-04-05T13:03:51.153Z,14.04
2023-04-05T13:05:30.917Z,14.16
2023-04-05T13:07:11.192Z,14.48
2023-04-05T13:08:51.695Z,14.53
2023-04-05T13:10:32.078Z,14.8
2023-04-05T13:12:12.409Z,14.9
2023-04-05T13:13:52.793Z,14.88
2023-04-05T13:15:33.275Z,14.99
2023-04-05T13:17:13.599Z,14.79
2023-04-05T13:18:54.045Z,14.65
2023-04-05T13:20:34.336Z,14.65
2023-04-05T13:22:14.768Z,14.79
2023-04-05T13:23:55.105Z,15.36
2023-04-05T13:25:35.577Z,15.06
2023-04-05T13:27:15.937Z,15.26
2023-04-05T13:28:56.290Z,15.56
2023-04-05T13:30:36.705Z,16.16
2023-04-05T13:32:17.049Z,15.85
2023-04-05T13:33:57.551Z,15.65
2023-04-05T13:35:37.906Z,15.53
2023-04-05T13:37:18.400Z,15.36
2023-04-05T13:38:58.698Z,15.38
2023-04-05T13:40:39.020Z,15.31
2023-04-05T13:42:19.308Z,15.51
2023-04-05T13:44:01.983Z,16.17
2023-04-05T13:45:40.146Z,16.4
2023-04-05T13:47:20.233Z,16.06
2023-04-05T13:49:00.524Z,15.38
2023-04-05T13:50:41.077Z,15.14
2023-04-05T13:52:21.193Z,15.31
2023-04-05T13:54:01.595Z,15.84
2023-04-05T13:55:42.148Z,16.11
2023-04-05T13:57:22.272Z,15.8
2023-04-05T13:59:02.755Z,15.09
2023-04-05T14:00:43.525Z,14.48
2023-04-05T14:02:23.567Z,14.31
2023-04-05T14:04:03.959Z,14.04
2023-04-05T14:05:45.137Z,14.35
2023-04-05T14:07:24.753Z,14.72
2023-04-05T14:09:05.109Z,14.55
2023-04-05T14:10:45.526Z,14.57
2023-04-05T14:12:25.858Z,14.68
2023-04-05T14:14:06.217Z,14.96
2023-04-05T14:15:46.670Z,14.99
2023-04-05T14:17:27.011Z,14.8
2023-04-05T14:19:07.384Z,14.48
2023-04-05T14:20:47.762Z,14.38
2023-04-05T14:22:28.148Z,14.41
2023-04-05T14:24:08.524Z,14.34
2023-04-05T14:25:48.895Z,14.28
2023-04-05T14:27:29.289Z,14.11
2023-04-05T14:29:09.644Z,14.2
2023-04-05T14:30:50.080Z,14.62
2023-04-05T14:32:33.047Z,14.59
2023-04-05T14:34:10.714Z,14.61
2023-04-05T14:35:51.040Z,14.55
2023-04-05T14:37:31.296Z,14.52
2023-04-05T14:39:11.754Z,14.45
2023-04-05T14:40:52.142Z,14.55
2023-04-05T14:42:47.602Z,14.51
2023-04-05T14:44:12.866Z,14.55
2023-04-05T14:45:53.301Z,14.2
2023-04-05T14:47:33.685Z,14.13
2023-04-05T14:49:14.036Z,13.96
2023-04-05T14:50:54.488Z,13.87
2023-04-05T14:52:34.881Z,13.42
2023-04-05T14:54:15.263Z,13.11
2023-04-05T14:55:55.693Z,12.5
2023-04-05T14:57:35.994Z,12.06
2023-04-05T14:59:16.475Z,11.74
2023-04-05T15:00:56.833Z,11.4
2023-04-05T15:02:37.184Z,11.12
2023-04-05T15:04:17.575Z,10.99
2023-04-05T15:05:58.001Z,10.9
2023-04-05T15:07:38.351Z,10.68
2023-04-05T15:09:18.726Z,10.58
2023-04-05T15:10:59.140Z,10.35
2023-04-05T15:12:39.470Z,10.37
2023-04-05T15:14:30.682Z,10.67
2023-04-05T15:16:00.306Z,11.08
2023-04-05T15:17:40.821Z,11.27
2023-04-05T15:19:21.159Z,11.7
2023-04-05T15:21:01.567Z,12.24
2023-04-05T15:22:41.950Z,12.7
2023-04-05T15:24:22.347Z,13.13
2023-04-05T15:26:02.816Z,13.28
2023-04-05T15:27:43.125Z,13.08
2023-04-05T15:29:23.640Z,13.06
2023-04-05T15:31:04.101Z,13.22
2023-04-05T15:32:44.543Z,13.49
2023-04-05T15:34:24.854Z,13.66
2023-04-05T15:36:05.335Z,13.89
2023-04-05T15:37:45.793Z,13.92
2023-04-05T15:39:26.226Z,13.92
2023-04-05T15:41:06.723Z,13.79
2023-04-05T15:42:47.048Z,13.79
2023-04-05T15:44:27.320Z,13.92
2023-04-05T15:46:07.713Z,14
2023-04-05T15:47:48.090Z,13.75
2023-04-05T15:49:28.509Z,13.56
2023-04-05T15:51:08.988Z,13.58
2023-04-05T15:52:49.333Z,13.34
2023-04-05T15:54:29.750Z,13.03
2023-04-05T15:56:10.130Z,12.84
2023-04-05T15:57:50.574Z,12.94
2023-04-05T15:59:31.064Z,13.1
2023-04-05T16:01:11.415Z,12.94
2023-04-05T16:02:54.111Z,12.77
2023-04-05T16:04:32.276Z,12.84
2023-04-05T16:06:12.733Z,13.24
2023-04-05T16:07:53.132Z,13.37
2023-04-05T16:09:33.562Z,13.06
2023-04-05T16:11:13.944Z,12.77
2023-04-05T16:12:54.451Z,12.77
2023-04-05T16:14:34.826Z,12.57
2023-04-05T16:16:20.426Z,12.6
2023-04-05T16:17:55.652Z,13.19
2023-04-05T16:19:36.026Z,13.25
2023-04-05T16:21:16.524Z,13.44
2023-04-05T16:22:56.949Z,13.75
2023-04-05T16:24:37.313Z,13.84
2023-04-05T16:26:17.686Z,13.82
2023-04-05T16:27:58.183Z,13.92
2023-04-05T16:29:38.578Z,13.82
2023-04-05T16:31:19.005Z,14.06
2023-04-05T16:32:59.543Z,14.03
2023-04-05T16:34:39.737Z,14.16
2023-04-05T16:36:20.075Z,14.13
2023-04-05T16:38:00.447Z,13.7
2023-04-05T16:39:40.765Z,13.46
2023-04-05T16:41:21.187Z,13.29
2023-04-05T16:43:01.559Z,13.13
2023-04-05T16:44:41.942Z,12.88
2023-04-05T16:46:22.534Z,12.59
2023-04-05T16:48:02.834Z,12.29
2023-04-05T16:49:43.146Z,12
2023-04-05T16:51:23.509Z,11.91
2023-04-05T16:53:03.935Z,11.8
2023-04-05T16:54:44.324Z,11.56
2023-04-05T16:56:25.024Z,11.34
2023-04-05T16:58:05.167Z,11.11
2023-04-05T16:59:45.581Z,10.86
2023-04-05T17:01:26.012Z,10.64
2023-04-05T17:03:06.380Z,10.4
2023-04-05T17:04:46.604Z,10.19
2023-04-05T17:06:27.035Z,10.02
2023-04-05T17:08:07.445Z,9.84
2023-04-05T17:09:47.773Z,9.82
2023-04-05T17:11:28.174Z,9.62
2023-04-05T17:13:08.570Z,9.45
2023-04-05T17:14:48.978Z,9.29
2023-04-05T17:16:29.441Z,9.07
2023-04-05T17:18:09.887Z,8.93
2023-04-05T17:19:50.275Z,8.82
2023-04-05T17:21:30.652Z,8.68
2023-04-05T17:23:10.973Z,8.63
2023-04-05T17:24:51.348Z,8.49
2023-04-05T17:26:31.746Z,8.45
2023-04-05T17:28:12.075Z,8.31
2023-04-05T17:29:52.430Z,8.15
2023-04-05T17:31:32.824Z,8.03
2023-04-05T17:33:13.186Z,7.86
2023-04-05T17:34:53.612Z,7.72
2023-04-05T17:36:34.027Z,7.56
2023-04-05T17:38:14.402Z,7.44
2023-04-05T17:39:54.792Z,7.28
2023-04-05T17:41:35.118Z,7.15
2023-04-05T17:43:15.545Z,7.04
2023-04-05T17:44:56.873Z,6.9
2023-04-05T17:46:41.627Z,6.73
2023-04-05T17:48:17.000Z,6.57
2023-04-05T17:49:57.220Z,6.42
2023-04-05T17:51:37.633Z,6.28
2023-04-05T17:53:18.004Z,6.1
2023-04-05T17:54:58.360Z,6
2023-04-05T17:56:38.755Z,5.91
2023-04-05T17:58:19.100Z,5.86
2023-04-05T17:59:59.538Z,5.74
2023-04-05T18:01:39.988Z,5.59
2023-04-05T18:03:20.345Z,5.45
2023-04-05T18:05:00.706Z,5.33
2023-04-05T18:06:41.069Z,5.23
2023-04-05T18:08:21.463Z,5.14
2023-04-05T18:10:01.945Z,5.01
2023-04-05T18:11:42.298Z,4.9
2023-04-05T18:13:22.706Z,4.8
2023-04-05T18:15:03.146Z,4.74
2023-04-05T18:16:43.634Z,4.64
2023-04-05T18:18:23.965Z,4.54
2023-04-05T18:20:04.252Z,4.44
2023-04-05T18:21:44.591Z,4.43
2023-04-05T18:23:25.132Z,4.35
2023-04-05T18:25:05.257Z,4.28
2023-04-05T18:26:45.625Z,4.25
2023-04-05T18:28:26.007Z,4.16
2023-04-05T18:30:06.385Z,4.09
2023-04-05T18:31:46.818Z,4.01
2023-04-05T18:33:27.239Z,3.91
2023-04-05T18:35:07.599Z,3.84
2023-04-05T18:36:47.990Z,3.84
2023-04-05T18:38:28.380Z,3.82
2023-04-05T18:40:08.716Z,3.78
2023-04-05T18:41:49.092Z,3.74
2023-04-05T18:43:29.420Z,3.7
2023-04-05T18:45:09.866Z,3.64
2023-04-05T18:46:50.203Z,3.58
2023-04-05T18:48:30.517Z,3.49
2023-04-05T18:50:10.940Z,3.47
2023-04-05T18:51:51.360Z,3.49
2023-04-05T18:53:31.727Z,3.44
2023-04-05T18:55:12.155Z,3.41
2023-04-05T18:56:52.563Z,3.33
2023-04-05T18:58:32.942Z,3.27
2023-04-05T19:00:13.333Z,3.15
2023-04-05T19:01:53.817Z,3.08
2023-04-05T19:03:34.156Z,2.96
2023-04-05T19:05:14.485Z,2.95
2023-04-05T19:06:54.912Z,2.87
2023-04-05T19:08:35.287Z,2.84
2023-04-05T19:10:15.725Z,2.81
2023-04-05T19:11:56.045Z,2.75
2023-04-05T19:13:36.362Z,2.69
2023-04-05T19:15:16.792Z,2.58
2023-04-05T19:16:57.127Z,2.5
2023-04-05T19:18:37.479Z,2.36
2023-04-05T19:20:17.904Z,2.3
2023-04-05T19:21:58.335Z,2.24
2023-04-05T19:23:38.725Z,2.17
2023-04-05T19:25:19.095Z,2.12
2023-04-05T19:26:59.517Z,2.05
2023-04-05T19:28:39.907Z,1.96
2023-04-05T19:30:20.334Z,1.87
2023-04-05T19:32:00.792Z,1.82
2023-04-05T19:33:41.152Z,1.78
2023-04-05T19:35:21.534Z,1.69
2023-04-05T19:37:01.963Z,1.65
2023-04-05T19:38:42.230Z,1.57
2023-04-05T19:40:22.591Z,1.51
2023-04-05T19:42:03.047Z,1.47
2023-04-05T19:43:43.458Z,1.35
2023-04-05T19:45:23.821Z,1.28
2023-04-05T19:47:04.160Z,1.24
2023-04-05T19:48:44.599Z,1.16
2023-04-05T19:50:25.560Z,1.06
2023-04-05T19:52:05.402Z,1.03
2023-04-05T19:53:45.795Z,1
2023-04-05T19:55:26.100Z,0.9
2023-04-05T19:57:06.551Z,0.83
2023-04-05T19:58:46.941Z,0.76
2023-04-05T20:00:27.328Z,0.69
2023-04-05T20:02:10.916Z,0.68
2023-04-05T20:03:48.111Z,0.65
2023-04-05T20:05:28.431Z,0.71
2023-04-05T20:07:08.724Z,0.66
2023-04-05T20:08:49.069Z,0.59
2023-04-05T20:10:29.371Z,0.49
2023-04-05T20:12:09.674Z,0.47
2023-04-05T20:13:49.988Z,0.42
2023-04-05T20:15:30.461Z,0.34
2023-04-05T20:17:10.807Z,0.37
2023-04-05T20:18:51.190Z,0.32
2023-04-05T20:20:31.582Z,0.25
2023-04-05T20:22:11.938Z,0.24
2023-04-05T20:23:52.372Z,0.22
2023-04-05T20:25:32.735Z,0.14
2023-04-05T20:27:13.129Z,0.13
2023-04-05T20:28:53.659Z,0.11
2023-04-05T20:30:34.043Z,0.03
2023-04-05T20:32:14.526Z,-0.04
2023-04-05T20:33:54.892Z,-0.09
2023-04-05T20:35:35.264Z,-0.11
2023-04-05T20:37:15.700Z,-0.17
2023-04-05T20:38:56.146Z,-0.21
2023-04-05T20:40:36.463Z,-0.24
2023-04-05T20:42:16.924Z,-0.31
2023-04-05T20:43:57.240Z,-0.32
2023-04-05T20:45:40.663Z,-0.38
2023-04-05T20:47:17.927Z,-0.43
2023-04-05T20:48:58.390Z,-0.49
2023-04-05T20:50:38.722Z,-0.61
2023-04-05T20:52:19.123Z,-0.65
2023-04-05T20:53:59.540Z,-0.68
2023-04-05T20:55:39.939Z,-0.7
2023-04-05T20:57:20.412Z,-0.75
2023-04-05T20:59:00.929Z,-0.78
2023-04-05T21:00:41.242Z,-0.78
2023-04-05T21:02:21.648Z,-0.8
2023-04-05T21:04:02.012Z,-0.85
2023-04-05T21:05:42.366Z,-0.85
2023-04-05T21:07:22.728Z,-0.89
2023-04-05T21:09:03.119Z,-0.96
2023-04-05T21:10:43.556Z,-0.99
2023-04-05T21:12:23.967Z,-1
2023-04-05T21:14:04.347Z,-0.96
2023-04-05T21:15:44.755Z,-0.97
2023-04-05T21:17:25.126Z,-1.07
2023-04-05T21:19:05.518Z,-1.09
2023-04-05T21:20:45.853Z,-1.16
2023-04-05T21:22:26.232Z,-1.16
2023-04-05T21:24:06.623Z,-1.18
2023-04-05T21:25:46.976Z,-1.21
2023-04-05T21:27:27.328Z,-1.18
2023-04-05T21:29:07.880Z,-1.18
2023-04-05T21:30:48.063Z,-1.24
2023-04-05T21:32:28.434Z,-1.28
2023-04-05T21:34:08.797Z,-1.31
2023-04-05T21:35:49.303Z,-1.37
2023-04-05T21:37:29.558Z,-1.44
2023-04-05T21:39:10.190Z,-1.45
2023-04-05T21:40:50.310Z,-1.48
2023-04-05T21:42:30.804Z,-1.52
2023-04-05T21:44:11.195Z,-1.54
2023-04-05T21:45:51.554Z,-1.55
2023-04-05T21:47:31.987Z,-1.61